sensor_id;sensor_type;location;lat;lon;timestamp;pressure;altitude;pressure_sealevel;temperature;humidity
62800;BME280;48842;51.046;13.796;2023-12-14T00:00:12;99167.97;;;10.82;62.52
62800;BME280;48842;51.046;13.796;2023-12-14T00:02:38;99173.19;;;10.82;62.04
62800;BME280;48842;51.046;13.796;2023-12-14T00:05:03;99174.91;;;10.83;62.09
62800;BME280;48842;51.046;13.796;2023-12-14T00:07:28;99173.16;;;10.83;62.37
62800;BME280;48842;51.046;13.796;2023-12-14T00:09:54;99178.41;;;10.83;62.44
62800;BME280;48842;51.046;13.796;2023-12-14T00:12:19;99177.53;;;10.83;62.07
62800;BME280;48842;51.046;13.796;2023-12-14T00:14:44;99178.44;;;10.82;62.07
62800;BME280;48842;51.046;13.796;2023-12-14T00:17:09;99188.88;;;10.83;62.21
62800;BME280;48842;51.046;13.796;2023-12-14T00:19:35;99182.75;;;10.83;62.20
62800;BME280;48842;51.046;13.796;2023-12-14T00:22:00;99187.13;;;10.84;62.33
62800;BME280;48842;51.046;13.796;2023-12-14T00:24:25;99182.72;;;10.85;62.43
62800;BME280;48842;51.046;13.796;2023-12-14T00:26:51;99185.31;;;10.86;62.30
62800;BME280;48842;51.046;13.796;2023-12-14T00:29:16;99185.34;;;10.85;62.32
62800;BME280;48842;51.046;13.796;2023-12-14T00:31:41;99186.25;;;10.85;62.36
62800;BME280;48842;51.046;13.796;2023-12-14T00:34:06;99193.22;;;10.85;62.26
62800;BME280;48842;51.046;13.796;2023-12-14T00:36:32;99190.63;;;10.83;62.41
62800;BME280;48842;51.046;13.796;2023-12-14T00:38:57;99201.13;;;10.81;62.30
62800;BME280;48842;51.046;13.796;2023-12-14T00:41:23;99201.09;;;10.83;62.14
62800;BME280;48842;51.046;13.796;2023-12-14T00:43:48;99209.88;;;10.82;62.07
62800;BME280;48842;51.046;13.796;2023-12-14T00:46:13;99203.75;;;10.80;62.18
62800;BME280;48842;51.046;13.796;2023-12-14T00:48:38;99209.88;;;10.79;61.99
62800;BME280;48842;51.046;13.796;2023-12-14T00:51:04;99214.28;;;10.78;62.37
62800;BME280;48842;51.046;13.796;2023-12-14T00:53:29;99225.56;;;10.80;62.52
62800;BME280;48842;51.046;13.796;2023-12-14T00:55:54;99224.72;;;10.80;62.58
62800;BME280;48842;51.046;13.796;2023-12-14T00:58:19;99232.56;;;10.80;62.34
62800;BME280;48842;51.046;13.796;2023-12-14T01:00:45;99236.94;;;10.81;62.33
62800;BME280;48842;51.046;13.796;2023-12-14T01:03:11;99247.41;;;10.81;62.44
62800;BME280;48842;51.046;13.796;2023-12-14T01:05:36;99242.19;;;10.81;62.32
62800;BME280;48842;51.046;13.796;2023-12-14T01:08:01;99249.16;;;10.82;62.29
62800;BME280;48842;51.046;13.796;2023-12-14T01:10:26;99251.78;;;10.82;62.08
62800;BME280;48842;51.046;13.796;2023-12-14T01:12:52;99240.38;;;10.83;62.46
62800;BME280;48842;51.046;13.796;2023-12-14T01:15:17;99250.00;;;10.84;62.21
62800;BME280;48842;51.046;13.796;2023-12-14T01:17:42;99249.09;;;10.85;62.23
62800;BME280;48842;51.046;13.796;2023-12-14T01:20:08;99251.72;;;10.85;62.36
62800;BME280;48842;51.046;13.796;2023-12-14T01:22:33;99258.72;;;10.83;62.17
62800;BME280;48842;51.046;13.796;2023-12-14T01:24:58;99262.25;;;10.82;62.73
62800;BME280;48842;51.046;13.796;2023-12-14T01:27:24;99257.91;;;10.81;62.40
62800;BME280;48842;51.046;13.796;2023-12-14T01:29:49;99256.13;;;10.81;62.53
62800;BME280;48842;51.046;13.796;2023-12-14T01:32:15;99259.63;;;10.82;62.47
62800;BME280;48842;51.046;13.796;2023-12-14T01:34:40;99261.31;;;10.85;62.41
62800;BME280;48842;51.046;13.796;2023-12-14T01:37:05;99271.78;;;10.86;62.24
62800;BME280;48842;51.046;13.796;2023-12-14T01:39:31;99273.50;;;10.87;62.04
62800;BME280;48842;51.046;13.796;2023-12-14T01:41:57;99273.50;;;10.87;62.32
62800;BME280;48842;51.046;13.796;2023-12-14T01:44:22;99271.78;;;10.86;62.59
62800;BME280;48842;51.046;13.796;2023-12-14T01:46:47;99279.63;;;10.86;62.47
62800;BME280;48842;51.046;13.796;2023-12-14T01:49:12;99280.53;;;10.85;62.31
62800;BME280;48842;51.046;13.796;2023-12-14T01:51:38;99282.31;;;10.83;62.22
62800;BME280;48842;51.046;13.796;2023-12-14T01:54:03;99279.69;;;10.81;62.30
62800;BME280;48842;51.046;13.796;2023-12-14T01:56:28;99290.22;;;10.80;62.51
62800;BME280;48842;51.046;13.796;2023-12-14T01:58:53;99293.69;;;10.80;62.31
62800;BME280;48842;51.046;13.796;2023-12-14T02:01:40;99305.03;;;10.81;62.45
62800;BME280;48842;51.046;13.796;2023-12-14T02:04:06;99294.56;;;10.81;62.21
62800;BME280;48842;51.046;13.796;2023-12-14T02:06:32;99301.53;;;10.82;62.31
62800;BME280;48842;51.046;13.796;2023-12-14T02:08:57;99310.28;;;10.81;62.39
62800;BME280;48842;51.046;13.796;2023-12-14T02:11:23;99307.69;;;10.79;62.36
62800;BME280;48842;51.046;13.796;2023-12-14T02:13:48;99306.81;;;10.79;62.57
62800;BME280;48842;51.046;13.796;2023-12-14T02:16:13;99308.53;;;10.80;62.40
62800;BME280;48842;51.046;13.796;2023-12-14T02:18:39;99310.31;;;10.79;62.41
62800;BME280;48842;51.046;13.796;2023-12-14T02:21:04;99303.31;;;10.78;62.66
62800;BME280;48842;51.046;13.796;2023-12-14T02:23:29;99306.84;;;10.76;62.53
62800;BME280;48842;51.046;13.796;2023-12-14T02:25:55;99311.22;;;10.77;62.63
62800;BME280;48842;51.046;13.796;2023-12-14T02:28:20;99315.56;;;10.78;62.63
62800;BME280;48842;51.046;13.796;2023-12-14T02:30:46;99314.69;;;10.77;62.35
62800;BME280;48842;51.046;13.796;2023-12-14T02:33:11;99314.69;;;10.77;62.69
62800;BME280;48842;51.046;13.796;2023-12-14T02:35:36;99314.69;;;10.77;62.74
62800;BME280;48842;51.046;13.796;2023-12-14T02:38:01;99320.81;;;10.78;62.92
62800;BME280;48842;51.046;13.796;2023-12-14T02:40:27;99329.53;;;10.77;63.00
62800;BME280;48842;51.046;13.796;2023-12-14T02:42:52;99328.69;;;10.76;62.46
62800;BME280;48842;51.046;13.796;2023-12-14T02:45:17;99329.53;;;10.77;62.74
62800;BME280;48842;51.046;13.796;2023-12-14T02:47:42;99328.66;;;10.78;63.01
62800;BME280;48842;51.046;13.796;2023-12-14T02:50:08;99330.41;;;10.77;63.10
62800;BME280;48842;51.046;13.796;2023-12-14T02:52:33;99326.94;;;10.77;63.06
62800;BME280;48842;51.046;13.796;2023-12-14T02:54:59;99323.44;;;10.76;62.94
62800;BME280;48842;51.046;13.796;2023-12-14T02:57:24;99328.88;;;11.23;61.84
62800;BME280;48842;51.046;13.796;2023-12-14T02:59:49;99335.56;;;10.83;62.59
62800;BME280;48842;51.046;13.796;2023-12-14T03:02:14;99342.66;;;10.75;62.66
62800;BME280;48842;51.046;13.796;2023-12-14T03:04:40;99345.31;;;10.74;62.77
62800;BME280;48842;51.046;13.796;2023-12-14T03:07:06;99347.03;;;10.75;62.75
62800;BME280;48842;51.046;13.796;2023-12-14T03:09:31;99341.81;;;10.75;62.86
62800;BME280;48842;51.046;13.796;2023-12-14T03:11:57;99346.16;;;10.74;62.87
62800;BME280;48842;51.046;13.796;2023-12-14T03:14:22;99350.53;;;10.74;62.86
62800;BME280;48842;51.046;13.796;2023-12-14T03:16:47;99355.78;;;10.74;62.51
62800;BME280;48842;51.046;13.796;2023-12-14T03:19:14;99361.03;;;10.72;63.31
62800;BME280;48842;51.046;13.796;2023-12-14T03:21:39;99365.41;;;10.73;63.21
62800;BME280;48842;51.046;13.796;2023-12-14T03:24:04;99368.00;;;10.75;63.17
62800;BME280;48842;51.046;13.796;2023-12-14T03:26:29;99367.09;;;10.76;62.54
62800;BME280;48842;51.046;13.796;2023-12-14T03:28:55;99365.34;;;10.78;63.07
62800;BME280;48842;51.046;13.796;2023-12-14T03:31:20;99372.25;;;10.80;62.85
62800;BME280;48842;51.046;13.796;2023-12-14T03:33:45;99376.66;;;10.80;62.74
62800;BME280;48842;51.046;13.796;2023-12-14T03:36:10;99382.75;;;10.80;62.97
62800;BME280;48842;51.046;13.796;2023-12-14T03:38:36;99380.16;;;10.79;62.91
62800;BME280;48842;51.046;13.796;2023-12-14T03:41:01;99379.28;;;10.78;62.87
62800;BME280;48842;51.046;13.796;2023-12-14T03:43:27;99390.63;;;10.77;63.02
62800;BME280;48842;51.046;13.796;2023-12-14T03:45:52;99395.03;;;10.77;63.00
62800;BME280;48842;51.046;13.796;2023-12-14T03:48:17;99399.38;;;10.78;62.74
62800;BME280;48842;51.046;13.796;2023-12-14T03:50:42;99400.25;;;10.77;62.91
62800;BME280;48842;51.046;13.796;2023-12-14T03:53:07;99412.47;;;10.78;63.10
62800;BME280;48842;51.046;13.796;2023-12-14T03:55:33;99404.66;;;10.76;63.19
62800;BME280;48842;51.046;13.796;2023-12-14T03:57:58;99417.75;;;10.76;62.96
62800;BME280;48842;51.046;13.796;2023-12-14T04:00:23;99417.75;;;10.76;63.03
62800;BME280;48842;51.046;13.796;2023-12-14T04:02:49;99416.84;;;10.76;63.10
62800;BME280;48842;51.046;13.796;2023-12-14T04:05:14;99416.84;;;10.77;62.70
62800;BME280;48842;51.046;13.796;2023-12-14T04:07:39;99429.06;;;10.78;63.17
62800;BME280;48842;51.046;13.796;2023-12-14T04:12:32;99428.19;;;10.78;62.96
62800;BME280;48842;51.046;13.796;2023-12-14T04:14:57;99438.63;;;10.81;63.29
62800;BME280;48842;51.046;13.796;2023-12-14T04:17:22;99432.53;;;10.79;62.96
62800;BME280;48842;51.046;13.796;2023-12-14T04:19:48;99437.75;;;10.80;62.77
62800;BME280;48842;51.046;13.796;2023-12-14T04:22:13;99441.25;;;10.82;63.20
62800;BME280;48842;51.046;13.796;2023-12-14T04:24:38;99441.22;;;10.84;62.72
62800;BME280;48842;51.046;13.796;2023-12-14T04:27:04;99450.81;;;10.85;62.98
62800;BME280;48842;51.046;13.796;2023-12-14T04:29:29;99448.19;;;10.85;62.97
62800;BME280;48842;51.046;13.796;2023-12-14T04:31:54;99442.97;;;10.85;62.73
62800;BME280;48842;51.046;13.796;2023-12-14T04:34:19;99452.56;;;10.85;62.90
62800;BME280;48842;51.046;13.796;2023-12-14T04:36:45;99458.69;;;10.85;63.25
62800;BME280;48842;51.046;13.796;2023-12-14T04:39:11;99451.69;;;10.84;62.96
62800;BME280;48842;51.046;13.796;2023-12-14T04:41:36;99462.19;;;10.82;63.26
62800;BME280;48842;51.046;13.796;2023-12-14T04:44:01;99458.72;;;10.82;63.25
62800;BME280;48842;51.046;13.796;2023-12-14T04:46:27;99473.53;;;10.83;63.08
62800;BME280;48842;51.046;13.796;2023-12-14T04:48:52;99477.06;;;10.82;63.30
62800;BME280;48842;51.046;13.796;2023-12-14T04:51:17;99480.53;;;10.82;63.18
62800;BME280;48842;51.046;13.796;2023-12-14T04:53:42;99485.78;;;10.82;63.14
62800;BME280;48842;51.046;13.796;2023-12-14T04:56:11;99487.53;;;10.80;63.27
62800;BME280;48842;51.046;13.796;2023-12-14T04:58:38;99493.63;;;10.82;63.33
62800;BME280;48842;51.046;13.796;2023-12-14T05:01:03;99490.13;;;10.80;63.02
62800;BME280;48842;51.046;13.796;2023-12-14T05:03:28;99498.00;;;10.79;63.27
62800;BME280;48842;51.046;13.796;2023-12-14T05:05:54;99501.50;;;10.81;63.10
62800;BME280;48842;51.046;13.796;2023-12-14T05:08:19;99508.50;;;10.82;63.22
62800;BME280;48842;51.046;13.796;2023-12-14T05:10:44;99508.47;;;10.80;63.18
62800;BME280;48842;51.046;13.796;2023-12-14T05:13:09;99526.84;;;10.77;63.42
62800;BME280;48842;51.046;13.796;2023-12-14T05:15:35;99529.47;;;10.76;63.54
62800;BME280;48842;51.046;13.796;2023-12-14T05:18:00;99530.41;;;10.72;63.20
62800;BME280;48842;51.046;13.796;2023-12-14T05:20:25;99537.44;;;10.67;63.18
62800;BME280;48842;51.046;13.796;2023-12-14T05:22:50;99535.72;;;10.62;63.25
62800;BME280;48842;51.046;13.796;2023-12-14T05:25:15;99541.00;;;10.58;63.26
62800;BME280;48842;51.046;13.796;2023-12-14T05:27:41;99541.09;;;10.52;63.61
62800;BME280;48842;51.046;13.796;2023-12-14T05:30:07;99542.81;;;10.51;63.63
62800;BME280;48842;51.046;13.796;2023-12-14T05:32:32;99551.56;;;10.50;63.63
62800;BME280;48842;51.046;13.796;2023-12-14T05:34:57;99557.69;;;10.47;63.73
62800;BME280;48842;51.046;13.796;2023-12-14T05:37:24;99555.09;;;10.46;63.98
62800;BME280;48842;51.046;13.796;2023-12-14T05:39:49;99552.47;;;10.44;63.90
62800;BME280;48842;51.046;13.796;2023-12-14T05:42:18;99563.03;;;10.37;64.15
62800;BME280;48842;51.046;13.796;2023-12-14T05:44:43;99568.28;;;10.27;64.69
62800;BME280;48842;51.046;13.796;2023-12-14T05:47:10;99576.16;;;10.24;64.43
62800;BME280;48842;51.046;13.796;2023-12-14T05:49:35;99582.28;;;10.22;64.86
62800;BME280;48842;51.046;13.796;2023-12-14T05:52:01;99588.44;;;10.19;65.04
62800;BME280;48842;51.046;13.796;2023-12-14T05:54:26;99584.06;;;10.18;65.17
62800;BME280;48842;51.046;13.796;2023-12-14T05:56:51;99591.91;;;10.18;65.17
62800;BME280;48842;51.046;13.796;2023-12-14T05:59:16;99601.50;;;10.14;65.65
62800;BME280;48842;51.046;13.796;2023-12-14T06:01:42;99603.25;;;10.16;65.67
62800;BME280;48842;51.046;13.796;2023-12-14T06:04:08;99609.34;;;10.16;65.83
62800;BME280;48842;51.046;13.796;2023-12-14T06:06:33;99609.34;;;10.16;65.84
62800;BME280;48842;51.046;13.796;2023-12-14T06:08:58;99611.13;;;10.14;66.00
62800;BME280;48842;51.046;13.796;2023-12-14T06:11:24;99609.34;;;10.16;66.10
62800;BME280;48842;51.046;13.796;2023-12-14T06:13:49;99622.47;;;10.13;66.27
62800;BME280;48842;51.046;13.796;2023-12-14T06:16:14;99620.72;;;10.09;66.63
62800;BME280;48842;51.046;13.796;2023-12-14T06:18:40;99621.63;;;10.11;66.70
62800;BME280;48842;51.046;13.796;2023-12-14T06:21:07;99630.28;;;10.16;66.58
62800;BME280;48842;51.046;13.796;2023-12-14T06:23:33;99635.53;;;10.14;66.62
62800;BME280;48842;51.046;13.796;2023-12-14T06:25:58;99640.75;;;10.14;66.83
62800;BME280;48842;51.046;13.796;2023-12-14T06:28:24;99638.19;;;10.10;66.74
62800;BME280;48842;51.046;13.796;2023-12-14T06:30:49;99643.38;;;10.13;66.99
62800;BME280;48842;51.046;13.796;2023-12-14T06:33:14;99646.88;;;10.15;66.80
62800;BME280;48842;51.046;13.796;2023-12-14T06:35:40;99650.38;;;10.16;66.64
62800;BME280;48842;51.046;13.796;2023-12-14T06:38:05;99661.72;;;10.11;66.60
62800;BME280;48842;51.046;13.796;2023-12-14T06:40:30;99660.88;;;10.09;66.67
62800;BME280;48842;51.046;13.796;2023-12-14T06:42:55;99666.97;;;10.10;66.90
62800;BME280;48842;51.046;13.796;2023-12-14T06:45:20;99670.47;;;10.10;67.00
62800;BME280;48842;51.046;13.796;2023-12-14T06:47:46;99672.22;;;10.07;66.79
62800;BME280;48842;51.046;13.796;2023-12-14T06:50:11;99674.84;;;10.07;66.92
62800;BME280;48842;51.046;13.796;2023-12-14T06:52:38;99683.53;;;10.09;67.33
62800;BME280;48842;51.046;13.796;2023-12-14T06:55:03;99685.25;;;10.13;67.23
62800;BME280;48842;51.046;13.796;2023-12-14T06:57:29;99693.09;;;10.22;67.16
62800;BME280;48842;51.046;13.796;2023-12-14T06:59:54;99700.06;;;10.20;66.75
62800;BME280;48842;51.046;13.796;2023-12-14T07:02:19;99693.09;;;10.16;66.90
62800;BME280;48842;51.046;13.796;2023-12-14T07:04:45;99706.19;;;10.13;66.82
62800;BME280;48842;51.046;13.796;2023-12-14T07:07:10;99708.81;;;10.13;67.12
62800;BME280;48842;51.046;13.796;2023-12-14T07:09:37;99718.44;;;10.11;66.87
62800;BME280;48842;51.046;13.796;2023-12-14T07:12:03;99723.69;;;10.08;66.70
62800;BME280;48842;51.046;13.796;2023-12-14T07:14:29;99732.41;;;10.07;66.74
62800;BME280;48842;51.046;13.796;2023-12-14T07:16:54;99729.78;;;10.07;66.80
62800;BME280;48842;51.046;13.796;2023-12-14T07:19:19;99744.63;;;10.08;66.64
62800;BME280;48842;51.046;13.796;2023-12-14T07:21:44;99748.94;;;10.09;66.53
62800;BME280;48842;51.046;13.796;2023-12-14T07:24:09;99755.94;;;10.10;66.60
62800;BME280;48842;51.046;13.796;2023-12-14T07:26:35;99763.78;;;10.10;66.41
62800;BME280;48842;51.046;13.796;2023-12-14T07:29:00;99771.66;;;10.07;66.36
62800;BME280;48842;51.046;13.796;2023-12-14T07:31:25;99778.63;;;10.05;66.34
62800;BME280;48842;51.046;13.796;2023-12-14T07:33:53;99777.75;;;10.03;66.22
62800;BME280;48842;51.046;13.796;2023-12-14T07:36:18;99780.38;;;10.00;66.21
62800;BME280;48842;51.046;13.796;2023-12-14T07:38:43;99777.78;;;9.93;66.30
62800;BME280;48842;51.046;13.796;2023-12-14T07:41:08;99783.88;;;9.92;66.52
62800;BME280;48842;51.046;13.796;2023-12-14T07:43:34;99789.13;;;9.92;66.55
62800;BME280;48842;51.046;13.796;2023-12-14T07:45:59;99800.47;;;9.94;66.36
62800;BME280;48842;51.046;13.796;2023-12-14T07:48:24;99808.31;;;9.91;66.36
62800;BME280;48842;51.046;13.796;2023-12-14T07:50:49;99805.69;;;9.87;66.04
62800;BME280;48842;51.046;13.796;2023-12-14T07:53:15;99813.56;;;9.85;65.99
62800;BME280;48842;51.046;13.796;2023-12-14T07:55:40;99815.31;;;9.82;66.05
62800;BME280;48842;51.046;13.796;2023-12-14T07:58:05;99824.03;;;9.79;66.20
62800;BME280;48842;51.046;13.796;2023-12-14T08:00:30;99830.13;;;9.73;66.27
62800;BME280;48842;51.046;13.796;2023-12-14T08:02:56;99841.47;;;9.68;66.19
62800;BME280;48842;51.046;13.796;2023-12-14T08:05:22;99839.72;;;9.64;66.53
62800;BME280;48842;51.046;13.796;2023-12-14T08:07:47;99846.72;;;9.63;66.41
62800;BME280;48842;51.046;13.796;2023-12-14T08:10:13;99845.84;;;9.66;66.41
62800;BME280;48842;51.046;13.796;2023-12-14T08:12:38;99857.16;;;9.68;66.33
62800;BME280;48842;51.046;13.796;2023-12-14T08:15:04;99860.66;;;9.67;66.57
62800;BME280;48842;51.046;13.796;2023-12-14T08:17:29;99862.38;;;9.68;66.66
62800;BME280;48842;51.046;13.796;2023-12-14T08:19:54;99867.63;;;9.71;66.85
62800;BME280;48842;51.046;13.796;2023-12-14T08:22:19;99868.50;;;9.70;66.69
62800;BME280;48842;51.046;13.796;2023-12-14T08:24:48;99865.91;;;9.67;66.68
62800;BME280;48842;51.046;13.796;2023-12-14T08:27:13;99870.25;;;9.65;66.68
62800;BME280;48842;51.046;13.796;2023-12-14T08:29:38;99874.59;;;9.66;66.79
62800;BME280;48842;51.046;13.796;2023-12-14T08:32:04;99878.97;;;9.65;66.75
62800;BME280;48842;51.046;13.796;2023-12-14T08:34:30;99881.59;;;9.65;66.75
62800;BME280;48842;51.046;13.796;2023-12-14T08:36:56;99888.53;;;9.65;66.49
62800;BME280;48842;51.046;13.796;2023-12-14T08:39:21;99885.94;;;9.60;66.59
62800;BME280;48842;51.046;13.796;2023-12-14T08:41:47;99894.63;;;9.57;66.53
62800;BME280;48842;51.046;13.796;2023-12-14T08:44:14;99900.75;;;9.58;66.78
62800;BME280;48842;51.046;13.796;2023-12-14T08:46:41;99905.09;;;9.60;66.90
62800;BME280;48842;51.046;13.796;2023-12-14T08:49:06;99903.38;;;9.64;66.64
62800;BME280;48842;51.046;13.796;2023-12-14T08:51:32;99913.84;;;9.66;66.74
62800;BME280;48842;51.046;13.796;2023-12-14T08:53:57;99917.31;;;9.66;66.50
62800;BME280;48842;51.046;13.796;2023-12-14T08:56:22;99921.69;;;9.64;66.51
62800;BME280;48842;51.046;13.796;2023-12-14T08:58:47;99926.00;;;9.59;66.79
62800;BME280;48842;51.046;13.796;2023-12-14T09:01:19;99934.75;;;9.58;66.82
62800;BME280;48842;51.046;13.796;2023-12-14T09:03:45;99941.69;;;9.54;66.51
62800;BME280;48842;51.046;13.796;2023-12-14T09:06:10;99942.56;;;9.50;66.51
62800;BME280;48842;51.046;13.796;2023-12-14T09:08:35;99952.16;;;9.50;66.65
62800;BME280;48842;51.046;13.796;2023-12-14T09:11:00;99952.16;;;9.50;66.67
62800;BME280;48842;51.046;13.796;2023-12-14T09:13:25;99963.47;;;9.49;66.71
62800;BME280;48842;51.046;13.796;2023-12-14T09:15:51;99969.56;;;9.44;66.70
62800;BME280;48842;51.046;13.796;2023-12-14T09:18:18;99968.69;;;9.44;66.94
62800;BME280;48842;51.046;13.796;2023-12-14T09:20:45;99972.16;;;9.44;66.94
62800;BME280;48842;51.046;13.796;2023-12-14T09:23:10;99973.06;;;9.47;66.89
62800;BME280;48842;51.046;13.796;2023-12-14T09:25:35;99978.31;;;9.50;66.87
62800;BME280;48842;51.046;13.796;2023-12-14T09:28:01;99983.53;;;9.51;66.70
62800;BME280;48842;51.046;13.796;2023-12-14T09:30:26;99981.78;;;9.46;66.74
62800;BME280;48842;51.046;13.796;2023-12-14T09:32:51;99989.59;;;9.38;66.60
62800;BME280;48842;51.046;13.796;2023-12-14T09:35:16;99992.19;;;9.32;66.57
62800;BME280;48842;51.046;13.796;2023-12-14T09:37:43;99998.28;;;9.24;66.73
62800;BME280;48842;51.046;13.796;2023-12-14T09:40:08;99999.13;;;9.22;67.02
62800;BME280;48842;51.046;13.796;2023-12-14T09:42:37;100006.09;;;9.23;67.02
62800;BME280;48842;51.046;13.796;2023-12-14T09:45:02;100004.38;;;9.26;67.00
62800;BME280;48842;51.046;13.796;2023-12-14T09:47:28;100009.59;;;9.28;66.84
62800;BME280;48842;51.046;13.796;2023-12-14T09:49:53;100008.75;;;9.31;66.91
62800;BME280;48842;51.046;13.796;2023-12-14T09:52:18;100010.50;;;9.33;66.48
62800;BME280;48842;51.046;13.796;2023-12-14T09:54:44;100012.22;;;9.34;66.63
62800;BME280;48842;51.046;13.796;2023-12-14T09:57:09;100026.19;;;9.35;66.50
62800;BME280;48842;51.046;13.796;2023-12-14T09:59:34;100020.94;;;9.32;66.23
62800;BME280;48842;51.046;13.796;2023-12-14T10:02:10;100027.91;;;9.31;66.29
62800;BME280;48842;51.046;13.796;2023-12-14T10:04:36;100032.25;;;9.32;66.26
62800;BME280;48842;51.046;13.796;2023-12-14T10:07:02;100035.75;;;9.33;66.17
62800;BME280;48842;51.046;13.796;2023-12-14T10:09:31;100044.47;;;9.33;66.17
62800;BME280;48842;51.046;13.796;2023-12-14T10:12:07;100041.88;;;9.35;66.18
62800;BME280;48842;51.046;13.796;2023-12-14T10:14:34;100040.13;;;9.37;66.12
62800;BME280;48842;51.046;13.796;2023-12-14T10:17:13;100045.34;;;9.34;65.47
62800;BME280;48842;51.046;13.796;2023-12-14T10:19:42;100045.34;;;9.34;65.73
62800;BME280;48842;51.046;13.796;2023-12-14T10:22:08;100048.81;;;9.30;65.68
62800;BME280;48842;51.046;13.796;2023-12-14T10:24:33;100058.38;;;9.23;65.50
62800;BME280;48842;51.046;13.796;2023-12-14T10:26:59;100055.75;;;9.21;65.99
62800;BME280;48842;51.046;13.796;2023-12-14T10:29:25;100063.56;;;9.20;65.62
62800;BME280;48842;51.046;13.796;2023-12-14T10:31:51;100064.44;;;9.20;65.52
62800;BME280;48842;51.046;13.796;2023-12-14T10:34:17;100066.22;;;9.23;65.56
62800;BME280;48842;51.046;13.796;2023-12-14T10:36:45;100064.47;;;9.23;65.43
62800;BME280;48842;51.046;13.796;2023-12-14T10:39:13;100064.47;;;9.26;65.73
62800;BME280;48842;51.046;13.796;2023-12-14T10:41:40;100064.50;;;9.33;65.59
62800;BME280;48842;51.046;13.796;2023-12-14T10:44:06;100068.00;;;9.32;65.70
62800;BME280;48842;51.046;13.796;2023-12-14T10:46:32;100073.22;;;9.30;65.44
62800;BME280;48842;51.046;13.796;2023-12-14T10:49:00;100077.53;;;9.23;65.31
62800;BME280;48842;51.046;13.796;2023-12-14T10:51:27;100088.81;;;9.19;65.31
62800;BME280;48842;51.046;13.796;2023-12-14T10:53:53;100087.06;;;9.18;65.41
62800;BME280;48842;51.046;13.796;2023-12-14T10:56:19;100094.06;;;9.19;65.23
62800;BME280;48842;51.046;13.796;2023-12-14T10:58:50;100100.13;;;9.18;65.32
62800;BME280;48842;51.046;13.796;2023-12-14T11:01:17;100099.25;;;9.16;65.21
62800;BME280;48842;51.046;13.796;2023-12-14T11:03:44;100101.00;;;9.13;64.96
62800;BME280;48842;51.046;13.796;2023-12-14T11:08:52;100113.16;;;9.09;65.24
62800;BME280;48842;51.046;13.796;2023-12-14T11:11:17;100116.63;;;9.06;65.04
62800;BME280;48842;51.046;13.796;2023-12-14T11:13:52;100118.56;;;9.43;64.13
62800;BME280;48842;51.046;13.796;2023-12-14T11:16:25;100124.50;;;9.13;64.51
62800;BME280;48842;51.046;13.796;2023-12-14T11:21:48;100136.63;;;9.01;65.01
62800;BME280;48842;51.046;13.796;2023-12-14T11:24:13;100141.81;;;8.95;64.79
62800;BME280;48842;51.046;13.796;2023-12-14T11:26:40;100145.28;;;8.93;64.91
62800;BME280;48842;51.046;13.796;2023-12-14T11:29:06;100139.13;;;8.87;64.94
62800;BME280;48842;51.046;13.796;2023-12-14T11:31:32;100146.09;;;8.87;64.73
62800;BME280;48842;51.046;13.796;2023-12-14T11:33:58;100149.59;;;8.90;64.60
62800;BME280;48842;51.046;13.796;2023-12-14T11:36:25;100145.28;;;8.94;65.02
62800;BME280;48842;51.046;13.796;2023-12-14T11:38:51;100154.00;;;8.96;64.86
62800;BME280;48842;51.046;13.796;2023-12-14T11:41:16;100156.59;;;8.95;65.00
62800;BME280;48842;51.046;13.796;2023-12-14T11:43:42;100147.06;;;8.98;64.80
62800;BME280;48842;51.046;13.796;2023-12-14T11:46:09;100152.31;;;9.01;64.88
62800;BME280;48842;51.046;13.796;2023-12-14T11:48:35;100154.06;;;9.02;64.58
62800;BME280;48842;51.046;13.796;2023-12-14T11:51:01;100158.38;;;9.02;64.63
62800;BME280;48842;51.046;13.796;2023-12-14T11:53:27;100160.16;;;9.04;64.89
62800;BME280;48842;51.046;13.796;2023-12-14T11:55:52;100156.69;;;9.04;64.84
62800;BME280;48842;51.046;13.796;2023-12-14T11:58:19;100159.25;;;9.01;64.57
62800;BME280;48842;51.046;13.796;2023-12-14T12:00:44;100157.50;;;8.98;64.95
62800;BME280;48842;51.046;13.796;2023-12-14T12:03:14;100160.13;;;9.00;64.90
62800;BME280;48842;51.046;13.796;2023-12-14T12:05:48;100153.16;;;8.99;64.72
62800;BME280;48842;51.046;13.796;2023-12-14T12:08:15;100163.63;;;9.02;64.91
62800;BME280;48842;51.046;13.796;2023-12-14T12:10:42;100166.25;;;9.05;65.05
62800;BME280;48842;51.046;13.796;2023-12-14T12:13:13;100167.13;;;9.04;64.75
62800;BME280;48842;51.046;13.796;2023-12-14T12:15:39;100169.69;;;9.01;64.89
62800;BME280;48842;51.046;13.796;2023-12-14T12:18:06;100172.25;;;8.93;64.57
62800;BME280;48842;51.046;13.796;2023-12-14T12:20:32;100178.31;;;8.87;64.81
62800;BME280;48842;51.046;13.796;2023-12-14T12:22:58;100180.91;;;8.87;65.33
62800;BME280;48842;51.046;13.796;2023-12-14T12:25:23;100177.47;;;8.90;65.27
62800;BME280;48842;51.046;13.796;2023-12-14T12:27:49;100179.22;;;8.89;64.68
62800;BME280;48842;51.046;13.796;2023-12-14T12:30:14;100176.56;;;8.85;64.67
62800;BME280;48842;51.046;13.796;2023-12-14T12:32:40;100178.22;;;8.78;64.82
62800;BME280;48842;51.046;13.796;2023-12-14T12:35:06;100190.41;;;8.76;64.90
62800;BME280;48842;51.046;13.796;2023-12-14T12:37:32;100189.53;;;8.77;65.18
62800;BME280;48842;51.046;13.796;2023-12-14T12:39:57;100196.53;;;8.80;65.17
62800;BME280;48842;51.046;13.796;2023-12-14T12:42:22;100198.28;;;8.79;64.96
62800;BME280;48842;51.046;13.796;2023-12-14T12:44:47;100204.38;;;8.81;65.36
62800;BME280;48842;51.046;13.796;2023-12-14T12:47:13;100204.41;;;8.84;65.31
62800;BME280;48842;51.046;13.796;2023-12-14T12:49:38;100208.78;;;8.85;64.96
62800;BME280;48842;51.046;13.796;2023-12-14T12:52:03;100215.69;;;8.83;65.04